sensor_id;sensor_type;location;lat;lon;timestamp;P1;durP1;ratioP1;P2;durP2;ratioP2
8871;SDS011;4472;52.092;9.820;2022-10-12T00:00:00;11.47;;;3.40;;
8871;SDS011;4472;52.092;9.820;2022-10-12T00:02:47;7.87;;;3.50;;
8871;SDS011;4472;52.092;9.820;2022-10-12T00:05:35;5.77;;;3.00;;
8871;SDS011;4472;52.092;9.820;2022-10-12T00:08:23;13.57;;;3.73;;
8871;SDS011;4472;52.092;9.820;2022-10-12T00:11:11;11.63;;;3.23;;
8871;SDS011;4472;52.092;9.820;2022-10-12T00:13:59;9.30;;;3.50;;
8871;SDS011;4472;52.092;9.820;2022-10-12T00:16:47;6.43;;;3.13;;
8871;SDS011;4472;52.092;9.820;2022-10-12T00:19:34;7.63;;;3.20;;
8871;SDS011;4472;52.092;9.820;2022-10-12T00:22:22;7.07;;;2.90;;
8871;SDS011;4472;52.092;9.820;2022-10-12T00:25:09;9.97;;;2.57;;
8871;SDS011;4472;52.092;9.820;2022-10-12T00:27:56;7.57;;;2.37;;
8871;SDS011;4472;52.092;9.820;2022-10-12T00:30:44;6.43;;;2.20;;
8871;SDS011;4472;52.092;9.820;2022-10-12T00:33:31;6.00;;;2.30;;
8871;SDS011;4472;52.092;9.820;2022-10-12T00:36:19;6.20;;;1.90;;
8871;SDS011;4472;52.092;9.820;2022-10-12T00:39:09;7.37;;;2.53;;
8871;SDS011;4472;52.092;9.820;2022-10-12T00:41:56;7.23;;;2.50;;
8871;SDS011;4472;52.092;9.820;2022-10-12T00:44:44;5.90;;;2.20;;
8871;SDS011;4472;52.092;9.820;2022-10-12T00:47:32;6.53;;;2.73;;
8871;SDS011;4472;52.092;9.820;2022-10-12T00:50:22;5.13;;;2.37;;
8871;SDS011;4472;52.092;9.820;2022-10-12T00:53:13;8.13;;;2.70;;
8871;SDS011;4472;52.092;9.820;2022-10-12T00:56:05;7.07;;;2.87;;
8871;SDS011;4472;52.092;9.820;2022-10-12T00:58:56;8.43;;;3.07;;
8871;SDS011;4472;52.092;9.820;2022-10-12T01:01:48;9.57;;;3.47;;
8871;SDS011;4472;52.092;9.820;2022-10-12T01:04:35;8.00;;;3.20;;
8871;SDS011;4472;52.092;9.820;2022-10-12T01:07:24;7.17;;;3.20;;
8871;SDS011;4472;52.092;9.820;2022-10-12T01:10:12;9.87;;;3.33;;
8871;SDS011;4472;52.092;9.820;2022-10-12T01:13:00;8.10;;;3.13;;
8871;SDS011;4472;52.092;9.820;2022-10-12T01:15:48;7.87;;;3.07;;
8871;SDS011;4472;52.092;9.820;2022-10-12T01:18:44;7.37;;;3.30;;
8871;SDS011;4472;52.092;9.820;2022-10-12T01:21:36;6.27;;;3.40;;
8871;SDS011;4472;52.092;9.820;2022-10-12T01:24:33;8.93;;;2.77;;
8871;SDS011;4472;52.092;9.820;2022-10-12T01:27:32;3.70;;;2.43;;
8871;SDS011;4472;52.092;9.820;2022-10-12T01:30:27;7.27;;;3.10;;
8871;SDS011;4472;52.092;9.820;2022-10-12T01:33:22;8.17;;;3.00;;
8871;SDS011;4472;52.092;9.820;2022-10-12T01:36:14;6.00;;;2.87;;
8871;SDS011;4472;52.092;9.820;2022-10-12T01:39:07;4.70;;;2.43;;
8871;SDS011;4472;52.092;9.820;2022-10-12T01:42:02;5.80;;;2.47;;
8871;SDS011;4472;52.092;9.820;2022-10-12T01:44:59;6.07;;;2.43;;
8871;SDS011;4472;52.092;9.820;2022-10-12T01:47:50;6.83;;;2.40;;
8871;SDS011;4472;52.092;9.820;2022-10-12T01:50:42;4.17;;;2.30;;
8871;SDS011;4472;52.092;9.820;2022-10-12T01:53:34;8.80;;;2.80;;
8871;SDS011;4472;52.092;9.820;2022-10-12T01:56:29;6.80;;;2.50;;
8871;SDS011;4472;52.092;9.820;2022-10-12T01:59:22;4.93;;;2.60;;
8871;SDS011;4472;52.092;9.820;2022-10-12T02:02:20;5.77;;;2.47;;
8871;SDS011;4472;52.092;9.820;2022-10-12T02:05:17;10.13;;;2.73;;
8871;SDS011;4472;52.092;9.820;2022-10-12T02:08:11;7.90;;;2.50;;
8871;SDS011;4472;52.092;9.820;2022-10-12T02:11:03;6.30;;;2.30;;
8871;SDS011;4472;52.092;9.820;2022-10-12T02:13:56;7.23;;;2.50;;
8871;SDS011;4472;52.092;9.820;2022-10-12T02:16:49;6.63;;;2.53;;
8871;SDS011;4472;52.092;9.820;2022-10-12T02:19:41;11.00;;;2.97;;
8871;SDS011;4472;52.092;9.820;2022-10-12T02:22:34;8.23;;;2.87;;
8871;SDS011;4472;52.092;9.820;2022-10-12T02:25:23;6.13;;;3.07;;
8871;SDS011;4472;52.092;9.820;2022-10-12T02:28:13;4.67;;;2.60;;
8871;SDS011;4472;52.092;9.820;2022-10-12T02:31:04;4.43;;;2.20;;
8871;SDS011;4472;52.092;9.820;2022-10-12T02:33:56;7.63;;;2.77;;
8871;SDS011;4472;52.092;9.820;2022-10-12T02:36:50;3.53;;;2.40;;
8871;SDS011;4472;52.092;9.820;2022-10-12T02:39:44;4.03;;;2.33;;
8871;SDS011;4472;52.092;9.820;2022-10-12T02:42:37;3.97;;;2.43;;
8871;SDS011;4472;52.092;9.820;2022-10-12T02:45:26;4.27;;;2.10;;
8871;SDS011;4472;52.092;9.820;2022-10-12T02:48:16;7.10;;;2.30;;
8871;SDS011;4472;52.092;9.820;2022-10-12T02:51:06;6.77;;;2.27;;
8871;SDS011;4472;52.092;9.820;2022-10-12T02:53:55;7.33;;;2.30;;
8871;SDS011;4472;52.092;9.820;2022-10-12T02:56:44;3.80;;;2.10;;
8871;SDS011;4472;52.092;9.820;2022-10-12T02:59:32;5.37;;;2.43;;
8871;SDS011;4472;52.092;9.820;2022-10-12T03:02:19;4.50;;;2.60;;
8871;SDS011;4472;52.092;9.820;2022-10-12T03:05:06;10.27;;;2.50;;
8871;SDS011;4472;52.092;9.820;2022-10-12T03:07:54;5.83;;;2.63;;
8871;SDS011;4472;52.092;9.820;2022-10-12T03:10:41;5.77;;;2.57;;
8871;SDS011;4472;52.092;9.820;2022-10-12T03:13:29;11.73;;;2.93;;
8871;SDS011;4472;52.092;9.820;2022-10-12T03:16:17;6.90;;;2.80;;
8871;SDS011;4472;52.092;9.820;2022-10-12T03:19:04;9.70;;;4.00;;
8871;SDS011;4472;52.092;9.820;2022-10-12T03:21:51;10.43;;;3.77;;
8871;SDS011;4472;52.092;9.820;2022-10-12T03:24:38;6.77;;;3.93;;
8871;SDS011;4472;52.092;9.820;2022-10-12T03:27:25;9.20;;;4.00;;
8871;SDS011;4472;52.092;9.820;2022-10-12T03:30:14;7.03;;;3.87;;
8871;SDS011;4472;52.092;9.820;2022-10-12T03:33:01;14.47;;;7.13;;
8871;SDS011;4472;52.092;9.820;2022-10-12T03:35:49;11.83;;;6.30;;
8871;SDS011;4472;52.092;9.820;2022-10-12T03:38:36;9.33;;;5.83;;
8871;SDS011;4472;52.092;9.820;2022-10-12T03:41:23;10.50;;;5.33;;
8871;SDS011;4472;52.092;9.820;2022-10-12T03:44:10;10.97;;;4.77;;
8871;SDS011;4472;52.092;9.820;2022-10-12T03:46:59;11.63;;;5.50;;
8871;SDS011;4472;52.092;9.820;2022-10-12T03:49:47;9.63;;;4.33;;
8871;SDS011;4472;52.092;9.820;2022-10-12T03:52:34;9.17;;;4.50;;
8871;SDS011;4472;52.092;9.820;2022-10-12T03:55:21;8.47;;;4.57;;
8871;SDS011;4472;52.092;9.820;2022-10-12T03:58:08;10.20;;;4.97;;
8871;SDS011;4472;52.092;9.820;2022-10-12T04:00:56;8.70;;;4.43;;
8871;SDS011;4472;52.092;9.820;2022-10-12T04:03:44;6.07;;;3.73;;
8871;SDS011;4472;52.092;9.820;2022-10-12T04:06:31;6.80;;;3.33;;
8871;SDS011;4472;52.092;9.820;2022-10-12T04:09:18;6.40;;;3.27;;
8871;SDS011;4472;52.092;9.820;2022-10-12T04:12:06;4.37;;;2.77;;
8871;SDS011;4472;52.092;9.820;2022-10-12T04:14:53;10.40;;;3.23;;
8871;SDS011;4472;52.092;9.820;2022-10-12T04:17:40;10.50;;;3.63;;
8871;SDS011;4472;52.092;9.820;2022-10-12T04:20:29;7.37;;;4.03;;
8871;SDS011;4472;52.092;9.820;2022-10-12T04:23:16;8.63;;;4.47;;
8871;SDS011;4472;52.092;9.820;2022-10-12T04:26:03;10.60;;;5.00;;
8871;SDS011;4472;52.092;9.820;2022-10-12T04:28:51;9.13;;;3.60;;
8871;SDS011;4472;52.092;9.820;2022-10-12T04:31:38;9.43;;;4.37;;
8871;SDS011;4472;52.092;9.820;2022-10-12T04:34:25;10.40;;;5.03;;
8871;SDS011;4472;52.092;9.820;2022-10-12T04:37:14;12.43;;;5.30;;
8871;SDS011;4472;52.092;9.820;2022-10-12T04:40:01;11.60;;;4.83;;
8871;SDS011;4472;52.092;9.820;2022-10-12T04:42:49;12.37;;;4.90;;
8871;SDS011;4472;52.092;9.820;2022-10-12T04:45:36;14.17;;;5.67;;
8871;SDS011;4472;52.092;9.820;2022-10-12T04:48:23;14.50;;;5.77;;
8871;SDS011;4472;52.092;9.820;2022-10-12T04:51:11;13.93;;;5.60;;
8871;SDS011;4472;52.092;9.820;2022-10-12T04:54:00;9.07;;;5.37;;
8871;SDS011;4472;52.092;9.820;2022-10-12T04:56:47;15.27;;;5.77;;
8871;SDS011;4472;52.092;9.820;2022-10-12T04:59:34;11.27;;;5.07;;
8871;SDS011;4472;52.092;9.820;2022-10-12T05:02:21;10.57;;;5.13;;
8871;SDS011;4472;52.092;9.820;2022-10-12T05:05:08;15.23;;;4.73;;
8871;SDS011;4472;52.092;9.820;2022-10-12T05:07:56;8.40;;;4.63;;
8871;SDS011;4472;52.092;9.820;2022-10-12T05:10:44;10.90;;;4.80;;
8871;SDS011;4472;52.092;9.820;2022-10-12T05:13:31;10.47;;;4.13;;
8871;SDS011;4472;52.092;9.820;2022-10-12T05:16:19;11.27;;;7.73;;
8871;SDS011;4472;52.092;9.820;2022-10-12T05:19:06;8.87;;;5.43;;
8871;SDS011;4472;52.092;9.820;2022-10-12T05:21:53;9.23;;;7.40;;
8871;SDS011;4472;52.092;9.820;2022-10-12T05:24:40;9.10;;;7.10;;
8871;SDS011;4472;52.092;9.820;2022-10-12T05:27:29;10.53;;;5.93;;
8871;SDS011;4472;52.092;9.820;2022-10-12T05:30:16;9.50;;;4.10;;
8871;SDS011;4472;52.092;9.820;2022-10-12T05:33:03;10.20;;;4.50;;
8871;SDS011;4472;52.092;9.820;2022-10-12T05:35:50;7.13;;;4.37;;
8871;SDS011;4472;52.092;9.820;2022-10-12T05:38:37;6.07;;;3.50;;
8871;SDS011;4472;52.092;9.820;2022-10-12T05:41:25;6.40;;;3.43;;
8871;SDS011;4472;52.092;9.820;2022-10-12T05:44:13;9.77;;;3.60;;
8871;SDS011;4472;52.092;9.820;2022-10-12T05:47:00;9.10;;;4.30;;
8871;SDS011;4472;52.092;9.820;2022-10-12T05:49:48;9.67;;;4.40;;
8871;SDS011;4472;52.092;9.820;2022-10-12T05:52:35;6.27;;;3.70;;
8871;SDS011;4472;52.092;9.820;2022-10-12T05:55:22;10.83;;;4.07;;
8871;SDS011;4472;52.092;9.820;2022-10-12T05:58:09;7.70;;;4.00;;
8871;SDS011;4472;52.092;9.820;2022-10-12T06:01:04;9.10;;;4.20;;
8871;SDS011;4472;52.092;9.820;2022-10-12T06:03:52;10.83;;;4.30;;
8871;SDS011;4472;52.092;9.820;2022-10-12T06:06:39;6.67;;;4.13;;
8871;SDS011;4472;52.092;9.820;2022-10-12T06:09:27;7.87;;;4.47;;
8871;SDS011;4472;52.092;9.820;2022-10-12T06:12:14;10.07;;;4.47;;
8871;SDS011;4472;52.092;9.820;2022-10-12T06:15:01;9.10;;;4.60;;
8871;SDS011;4472;52.092;9.820;2022-10-12T06:17:50;9.57;;;4.50;;
8871;SDS011;4472;52.092;9.820;2022-10-12T06:20:37;4.73;;;3.80;;
8871;SDS011;4472;52.092;9.820;2022-10-12T06:23:24;7.47;;;4.40;;
8871;SDS011;4472;52.092;9.820;2022-10-12T06:26:12;9.87;;;5.93;;
8871;SDS011;4472;52.092;9.820;2022-10-12T06:28:59;7.27;;;4.70;;
8871;SDS011;4472;52.092;9.820;2022-10-12T06:31:46;7.53;;;3.93;;
8871;SDS011;4472;52.092;9.820;2022-10-12T06:34:34;7.17;;;3.90;;
8871;SDS011;4472;52.092;9.820;2022-10-12T06:37:22;11.20;;;4.33;;
8871;SDS011;4472;52.092;9.820;2022-10-12T06:40:09;7.50;;;4.53;;
8871;SDS011;4472;52.092;9.820;2022-10-12T06:42:57;9.43;;;4.17;;
8871;SDS011;4472;52.092;9.820;2022-10-12T06:45:47;5.83;;;4.70;;
8871;SDS011;4472;52.092;9.820;2022-10-12T06:48:34;7.83;;;4.57;;
8871;SDS011;4472;52.092;9.820;2022-10-12T06:51:23;7.00;;;4.50;;
8871;SDS011;4472;52.092;9.820;2022-10-12T06:54:10;11.40;;;4.77;;
8871;SDS011;4472;52.092;9.820;2022-10-12T06:56:57;9.53;;;5.30;;
8871;SDS011;4472;52.092;9.820;2022-10-12T06:59:44;12.50;;;6.57;;
8871;SDS011;4472;52.092;9.820;2022-10-12T07:02:31;12.70;;;7.27;;
8871;SDS011;4472;52.092;9.820;2022-10-12T07:05:18;18.27;;;8.47;;
8871;SDS011;4472;52.092;9.820;2022-10-12T07:08:08;15.77;;;7.43;;
8871;SDS011;4472;52.092;9.820;2022-10-12T07:10:58;14.50;;;6.30;;
8871;SDS011;4472;52.092;9.820;2022-10-12T07:13:46;15.07;;;6.67;;
8871;SDS011;4472;52.092;9.820;2022-10-12T07:16:33;18.43;;;7.73;;
8871;SDS011;4472;52.092;9.820;2022-10-12T07:19:20;19.53;;;6.90;;
8871;SDS011;4472;52.092;9.820;2022-10-12T07:22:07;14.93;;;7.87;;
8871;SDS011;4472;52.092;9.820;2022-10-12T07:24:56;16.33;;;8.30;;
8871;SDS011;4472;52.092;9.820;2022-10-12T07:27:45;16.40;;;7.70;;
8871;SDS011;4472;52.092;9.820;2022-10-12T07:30:34;16.23;;;8.23;;
8871;SDS011;4472;52.092;9.820;2022-10-12T07:33:22;14.07;;;8.30;;
8871;SDS011;4472;52.092;9.820;2022-10-12T07:36:09;21.07;;;10.13;;
8871;SDS011;4472;52.092;9.820;2022-10-12T07:38:56;21.83;;;9.27;;
8871;SDS011;4472;52.092;9.820;2022-10-12T07:41:44;15.50;;;8.10;;
8871;SDS011;4472;52.092;9.820;2022-10-12T07:44:32;13.40;;;8.17;;
8871;SDS011;4472;52.092;9.820;2022-10-12T07:47:19;14.47;;;7.67;;
8871;SDS011;4472;52.092;9.820;2022-10-12T07:50:06;12.37;;;7.43;;
8871;SDS011;4472;52.092;9.820;2022-10-12T07:52:54;12.57;;;6.90;;
8871;SDS011;4472;52.092;9.820;2022-10-12T07:55:41;11.83;;;6.73;;
8871;SDS011;4472;52.092;9.820;2022-10-12T07:58:30;14.17;;;6.53;;
8871;SDS011;4472;52.092;9.820;2022-10-12T08:01:17;16.93;;;6.83;;
8871;SDS011;4472;52.092;9.820;2022-10-12T08:04:06;11.77;;;6.07;;
8871;SDS011;4472;52.092;9.820;2022-10-12T08:06:54;10.63;;;6.87;;
8871;SDS011;4472;52.092;9.820;2022-10-12T08:09:42;10.20;;;5.40;;
8871;SDS011;4472;52.092;9.820;2022-10-12T08:12:29;10.30;;;5.33;;
8871;SDS011;4472;52.092;9.820;2022-10-12T08:15:18;11.37;;;5.17;;
8871;SDS011;4472;52.092;9.820;2022-10-12T08:18:05;10.77;;;5.03;;
8871;SDS011;4472;52.092;9.820;2022-10-12T08:20:52;11.47;;;4.50;;
8871;SDS011;4472;52.092;9.820;2022-10-12T08:23:39;9.23;;;5.10;;
8871;SDS011;4472;52.092;9.820;2022-10-12T08:26:28;10.83;;;5.50;;
8871;SDS011;4472;52.092;9.820;2022-10-12T08:29:17;11.07;;;5.27;;
8871;SDS011;4472;52.092;9.820;2022-10-12T08:32:06;11.90;;;4.50;;
8871;SDS011;4472;52.092;9.820;2022-10-12T08:34:53;13.67;;;4.40;;
8871;SDS011;4472;52.092;9.820;2022-10-12T08:37:41;10.40;;;4.40;;
8871;SDS011;4472;52.092;9.820;2022-10-12T08:40:29;13.37;;;4.03;;
8871;SDS011;4472;52.092;9.820;2022-10-12T08:43:20;10.90;;;4.10;;
8871;SDS011;4472;52.092;9.820;2022-10-12T08:46:13;10.57;;;4.17;;
8871;SDS011;4472;52.092;9.820;2022-10-12T08:49:09;12.40;;;3.93;;
8871;SDS011;4472;52.092;9.820;2022-10-12T08:52:01;10.50;;;3.63;;
8871;SDS011;4472;52.092;9.820;2022-10-12T08:54:52;9.43;;;3.70;;
8871;SDS011;4472;52.092;9.820;2022-10-12T08:57:41;14.43;;;4.07;;
8871;SDS011;4472;52.092;9.820;2022-10-12T09:00:30;7.57;;;3.70;;
8871;SDS011;4472;52.092;9.820;2022-10-12T09:03:33;11.87;;;3.80;;
8871;SDS011;4472;52.092;9.820;2022-10-12T09:06:31;10.80;;;3.63;;
8871;SDS011;4472;52.092;9.820;2022-10-12T09:09:26;9.83;;;3.50;;
8871;SDS011;4472;52.092;9.820;2022-10-12T09:12:27;9.47;;;3.50;;
8871;SDS011;4472;52.092;9.820;2022-10-12T09:15:23;10.03;;;3.30;;
8871;SDS011;4472;52.092;9.820;2022-10-12T09:18:14;6.63;;;2.90;;
8871;SDS011;4472;52.092;9.820;2022-10-12T09:21:06;10.43;;;2.90;;
8871;SDS011;4472;52.092;9.820;2022-10-12T09:23:57;8.70;;;2.93;;
8871;SDS011;4472;52.092;9.820;2022-10-12T09:26:45;14.03;;;3.27;;
8871;SDS011;4472;52.092;9.820;2022-10-12T09:29:36;10.10;;;2.67;;
8871;SDS011;4472;52.092;9.820;2022-10-12T09:32:30;9.07;;;2.87;;
8871;SDS011;4472;52.092;9.820;2022-10-12T09:35:29;10.50;;;2.23;;
8871;SDS011;4472;52.092;9.820;2022-10-12T09:38:16;10.37;;;2.57;;
8871;SDS011;4472;52.092;9.820;2022-10-12T09:41:05;11.77;;;2.50;;
8871;SDS011;4472;52.092;9.820;2022-10-12T09:43:52;7.40;;;2.33;;
8871;SDS011;4472;52.092;9.820;2022-10-12T09:46:44;6.67;;;2.10;;
8871;SDS011;4472;52.092;9.820;2022-10-12T09:49:38;5.57;;;2.03;;
8871;SDS011;4472;52.092;9.820;2022-10-12T09:52:28;7.43;;;2.40;;
8871;SDS011;4472;52.092;9.820;2022-10-12T09:55:20;5.80;;;1.97;;
8871;SDS011;4472;52.092;9.820;2022-10-12T09:58:15;6.37;;;2.30;;
8871;SDS011;4472;52.092;9.820;2022-10-12T10:01:14;9.23;;;2.70;;
8871;SDS011;4472;52.092;9.820;2022-10-12T10:04:11;5.40;;;1.83;;
8871;SDS011;4472;52.092;9.820;2022-10-12T10:10:13;7.37;;;1.90;;
8871;SDS011;4472;52.092;9.820;2022-10-12T10:13:03;6.77;;;2.57;;
8871;SDS011;4472;52.092;9.820;2022-10-12T10:16:00;7.90;;;2.30;;
8871;SDS011;4472;52.092;9.820;2022-10-12T10:18:53;7.53;;;3.10;;
8871;SDS011;4472;52.092;9.820;2022-10-12T10:21:42;8.93;;;2.60;;
8871;SDS011;4472;52.092;9.820;2022-10-12T10:24:29;9.00;;;2.17;;
8871;SDS011;4472;52.092;9.820;2022-10-12T10:27:26;7.40;;;2.00;;
8871;SDS011;4472;52.092;9.820;2022-10-12T10:30:19;7.10;;;2.10;;
8871;SDS011;4472;52.092;9.820;2022-10-12T10:33:14;6.97;;;2.33;;
8871;SDS011;4472;52.092;9.820;2022-10-12T10:36:04;8.33;;;2.27;;
8871;SDS011;4472;52.092;9.820;2022-10-12T10:39:02;5.47;;;2.07;;
8871;SDS011;4472;52.092;9.820;2022-10-12T10:41:52;6.43;;;2.13;;
8871;SDS011;4472;52.092;9.820;2022-10-12T10:44:44;11.87;;;2.40;;
8871;SDS011;4472;52.092;9.820;2022-10-12T10:47:40;6.57;;;2.00;;
8871;SDS011;4472;52.092;9.820;2022-10-12T10:50:34;7.10;;;2.50;;
8871;SDS011;4472;52.092;9.820;2022-10-12T10:53:24;7.90;;;2.10;;
8871;SDS011;4472;52.092;9.820;2022-10-12T10:56:13;8.17;;;2.43;;
8871;SDS011;4472;52.092;9.820;2022-10-12T10:59:11;4.43;;;1.80;;
8871;SDS011;4472;52.092;9.820;2022-10-12T11:02:08;6.90;;;2.17;;
8871;SDS011;4472;52.092;9.820;2022-10-12T11:05:05;8.13;;;2.47;;
8871;SDS011;4472;52.092;9.820;2022-10-12T11:08:00;7.33;;;2.40;;
8871;SDS011;4472;52.092;9.820;2022-10-12T11:10:51;8.17;;;3.97;;
8871;SDS011;4472;52.092;9.820;2022-10-12T11:13:43;4.97;;;2.20;;
8871;SDS011;4472;52.092;9.820;2022-10-12T11:16:35;5.10;;;2.50;;
8871;SDS011;4472;52.092;9.820;2022-10-12T11:19:28;7.93;;;2.60;;
8871;SDS011;4472;52.092;9.820;2022-10-12T11:22:19;10.03;;;2.93;;
8871;SDS011;4472;52.092;9.820;2022-10-12T11:25:13;5.37;;;2.43;;
8871;SDS011;4472;52.092;9.820;2022-10-12T11:28:07;7.13;;;2.60;;
8871;SDS011;4472;52.092;9.820;2022-10-12T11:31:00;6.73;;;3.47;;
8871;SDS011;4472;52.092;9.820;2022-10-12T11:33:48;8.50;;;2.83;;
8871;SDS011;4472;52.092;9.820;2022-10-12T11:36:38;9.33;;;2.93;;
8871;SDS011;4472;52.092;9.820;2022-10-12T11:39:29;6.40;;;2.70;;
8871;SDS011;4472;52.092;9.820;2022-10-12T11:42:26;7.07;;;2.73;;
8871;SDS011;4472;52.092;9.820;2022-10-12T11:45:18;7.60;;;2.70;;
8871;SDS011;4472;52.092;9.820;2022-10-12T11:48:09;8.93;;;3.83;;
8871;SDS011;4472;52.092;9.820;2022-10-12T11:50:59;7.30;;;3.47;;
8871;SDS011;4472;52.092;9.820;2022-10-12T11:53:51;13.30;;;4.00;;
8871;SDS011;4472;52.092;9.820;2022-10-12T11:56:44;6.30;;;2.40;;
8871;SDS011;4472;52.092;9.820;2022-10-12T11:59:37;5.53;;;2.30;;
8871;SDS011;4472;52.092;9.820;2022-10-12T12:02:30;7.67;;;2.87;;
8871;SDS011;4472;52.092;9.820;2022-10-12T12:05:28;5.23;;;2.80;;
8871;SDS011;4472;52.092;9.820;2022-10-12T12:08:21;15.20;;;4.70;;
8871;SDS011;4472;52.092;9.820;2022-10-12T12:11:17;6.20;;;3.07;;
8871;SDS011;4472;52.092;9.820;2022-10-12T12:17:30;6.60;;;2.73;;
8871;SDS011;4472;52.092;9.820;2022-10-12T12:23:38;9.47;;;3.07;;
8871;SDS011;4472;52.092;9.820;2022-10-12T12:26:35;7.33;;;2.97;;
8871;SDS011;4472;52.092;9.820;2022-10-12T12:29:23;5.40;;;2.73;;
8871;SDS011;4472;52.092;9.820;2022-10-12T12:32:15;6.23;;;3.10;;
8871;SDS011;4472;52.092;9.820;2022-10-12T12:35:03;5.37;;;2.67;;
8871;SDS011;4472;52.092;9.820;2022-10-12T12:37:58;8.17;;;2.57;;
8871;SDS011;4472;52.092;9.820;2022-10-12T12:40:56;6.20;;;2.60;;
8871;SDS011;4472;52.092;9.820;2022-10-12T12:43:50;8.03;;;2.83;;
8871;SDS011;4472;52.092;9.820;2022-10-12T12:53:17;6.07;;;2.60;;
8871;SDS011;4472;52.092;9.820;2022-10-12T12:56:10;7.83;;;3.00;;
8871;SDS011;4472;52.092;9.820;2022-10-12T13:02:37;7.77;;;3.70;;
8871;SDS011;4472;52.092;9.820;2022-10-12T13:09:26;12.07;;;6.70;;
8871;SDS011;4472;52.092;9.820;2022-10-12T13:12:31;5.00;;;2.37;;
8871;SDS011;4472;52.092;9.820;2022-10-12T13:15:37;5.07;;;2.57;;
8871;SDS011;4472;52.092;9.820;2022-10-12T13:18:45;7.80;;;3.03;;
8871;SDS011;4472;52.092;9.820;2022-10-12T13:21:35;6.97;;;2.60;;
8871;SDS011;4472;52.092;9.820;2022-10-12T13:24:25;7.97;;;2.60;;
8871;SDS011;4472;52.092;9.820;2022-10-12T13:27:17;4.77;;;1.80;;
8871;SDS011;4472;52.092;9.820;2022-10-12T13:30:11;4.10;;;1.97;;
8871;SDS011;4472;52.092;9.820;2022-10-12T13:33:02;15.63;;;2.43;;
8871;SDS011;4472;52.092;9.820;2022-10-12T13:36:00;5.87;;;2.27;;
8871;SDS011;4472;52.092;9.820;2022-10-12T13:38:53;7.93;;;2.20;;
8871;SDS011;4472;52.092;9.820;2022-10-12T13:41:42;5.23;;;2.30;;
8871;SDS011;4472;52.092;9.820;2022-10-12T13:44:31;4.10;;;2.23;;
8871;SDS011;4472;52.092;9.820;2022-10-12T13:51:15;4.70;;;2.00;;
8871;SDS011;4472;52.092;9.820;2022-10-12T13:54:18;12.13;;;2.97;;
8871;SDS011;4472;52.092;9.820;2022-10-12T13:57:15;4.80;;;2.07;;
8871;SDS011;4472;52.092;9.820;2022-10-12T14:00:07;7.93;;;2.47;;
8871;SDS011;4472;52.092;9.820;2022-10-12T14:03:03;8.80;;;6.13;;
8871;SDS011;4472;52.092;9.820;2022-10-12T14:05:51;35.80;;;5.77;;
8871;SDS011;4472;52.092;9.820;2022-10-12T14:08:40;28.20;;;4.57;;
8871;SDS011;4472;52.092;9.820;2022-10-12T14:11:27;75.50;;;7.80;;
8871;SDS011;4472;52.092;9.820;2022-10-12T14:14:16;7.80;;;2.70;;
8871;SDS011;4472;52.092;9.820;2022-10-12T14:17:06;53.83;;;6.87;;
8871;SDS011;4472;52.092;9.820;2022-10-12T14:20:13;24.13;;;4.50;;
8871;SDS011;4472;52.092;9.820;2022-10-12T14:23:03;12.77;;;3.50;;
8871;SDS011;4472;52.092;9.820;2022-10-12T14:25:59;10.37;;;3.13;;
8871;SDS011;4472;52.092;9.820;2022-10-12T14:28:46;18.30;;;3.90;;
8871;SDS011;4472;52.092;9.820;2022-10-12T14:34:43;21.27;;;5.00;;
8871;SDS011;4472;52.092;9.820;2022-10-12T14:37:31;12.17;;;3.27;;
8871;SDS011;4472;52.092;9.820;2022-10-12T14:40:23;6.93;;;2.80;;
8871;SDS011;4472;52.092;9.820;2022-10-12T14:43:21;16.13;;;4.10;;
8871;SDS011;4472;52.092;9.820;2022-10-12T14:46:09;16.50;;;4.80;;
8871;SDS011;4472;52.092;9.820;2022-10-12T14:48:56;10.47;;;3.20;;
8871;SDS011;4472;52.092;9.820;2022-10-12T14:51:44;12.00;;;4.00;;
8871;SDS011;4472;52.092;9.820;2022-10-12T14:54:31;7.40;;;2.90;;
8871;SDS011;4472;52.092;9.820;2022-10-12T14:57:19;7.57;;;3.00;;
8871;SDS011;4472;52.092;9.820;2022-10-12T15:00:09;10.37;;;2.87;;
8871;SDS011;4472;52.092;9.820;2022-10-12T15:02:59;8.40;;;2.93;;
8871;SDS011;4472;52.092;9.820;2022-10-12T15:05:47;7.80;;;2.97;;
8871;SDS011;4472;52.092;9.820;2022-10-12T15:08:34;11.10;;;2.63;;
8871;SDS011;4472;52.092;9.820;2022-10-12T15:11:21;34.27;;;4.00;;
8871;SDS011;4472;52.092;9.820;2022-10-12T15:14:08;11.30;;;2.93;;
8871;SDS011;4472;52.092;9.820;2022-10-12T15:16:58;9.90;;;3.00;;
8871;SDS011;4472;52.092;9.820;2022-10-12T15:19:48;7.93;;;3.13;;
8871;SDS011;4472;52.092;9.820;2022-10-12T15:22:36;9.90;;;3.37;;
8871;SDS011;4472;52.092;9.820;2022-10-12T15:25:24;8.53;;;3.10;;
8871;SDS011;4472;52.092;9.820;2022-10-12T15:28:18;12.77;;;3.10;;
8871;SDS011;4472;52.092;9.820;2022-10-12T15:31:09;10.83;;;2.80;;
8871;SDS011;4472;52.092;9.820;2022-10-12T15:33:59;5.83;;;2.80;;
8871;SDS011;4472;52.092;9.820;2022-10-12T15:36:46;5.93;;;2.60;;
8871;SDS011;4472;52.092;9.820;2022-10-12T15:39:34;7.83;;;2.23;;
8871;SDS011;4472;52.092;9.820;2022-10-12T15:42:30;8.00;;;2.60;;
8871;SDS011;4472;52.092;9.820;2022-10-12T15:45:19;9.20;;;2.70;;
8871;SDS011;4472;52.092;9.820;2022-10-12T15:48:09;9.73;;;2.80;;
8871;SDS011;4472;52.092;9.820;2022-10-12T15:50:57;4.90;;;2.37;;
8871;SDS011;4472;52.092;9.820;2022-10-12T15:53:44;5.27;;;2.60;;
8871;SDS011;4472;52.092;9.820;2022-10-12T15:56:35;6.20;;;2.60;;
8871;SDS011;4472;52.092;9.820;2022-10-12T15:59:24;3.30;;;2.57;;
8871;SDS011;4472;52.092;9.820;2022-10-12T16:02:11;5.73;;;2.50;;
8871;SDS011;4472;52.092;9.820;2022-10-12T16:04:58;4.20;;;2.60;;
8871;SDS011;4472;52.092;9.820;2022-10-12T16:07:47;8.57;;;3.17;;
8871;SDS011;4472;52.092;9.820;2022-10-12T16:10:35;5.40;;;2.53;;
8871;SDS011;4472;52.092;9.820;2022-10-12T16:13:25;8.80;;;3.10;;
8871;SDS011;4472;52.092;9.820;2022-10-12T16:16:13;5.27;;;2.30;;
8871;SDS011;4472;52.092;9.820;2022-10-12T16:19:00;7.67;;;2.70;;
8871;SDS011;4472;52.092;9.820;2022-10-12T16:21:48;7.43;;;2.93;;
8871;SDS011;4472;52.092;9.820;2022-10-12T16:24:38;6.30;;;3.13;;
8871;SDS011;4472;52.092;9.820;2022-10-12T16:27:25;6.73;;;2.83;;
8871;SDS011;4472;52.092;9.820;2022-10-12T16:30:13;5.37;;;2.67;;
8871;SDS011;4472;52.092;9.820;2022-10-12T16:33:00;5.83;;;2.77;;
8871;SDS011;4472;52.092;9.820;2022-10-12T16:35:47;5.83;;;2.73;;
8871;SDS011;4472;52.092;9.820;2022-10-12T16:38:35;4.83;;;2.67;;
8871;SDS011;4472;52.092;9.820;2022-10-12T16:41:23;5.10;;;3.20;;
8871;SDS011;4472;52.092;9.820;2022-10-12T16:44:10;11.23;;;4.40;;
8871;SDS011;4472;52.092;9.820;2022-10-12T16:47:00;11.37;;;3.97;;
8871;SDS011;4472;52.092;9.820;2022-10-12T16:49:47;11.47;;;4.73;;
8871;SDS011;4472;52.092;9.820;2022-10-12T16:52:36;10.43;;;4.70;;
8871;SDS011;4472;52.092;9.820;2022-10-12T16:55:23;9.57;;;5.03;;
8871;SDS011;4472;52.092;9.820;2022-10-12T16:58:12;9.07;;;3.97;;
8871;SDS011;4472;52.092;9.820;2022-10-12T17:01:06;8.87;;;4.50;;
8871;SDS011;4472;52.092;9.820;2022-10-12T17:03:54;9.27;;;4.97;;
8871;SDS011;4472;52.092;9.820;2022-10-12T17:06:44;9.00;;;5.50;;
8871;SDS011;4472;52.092;9.820;2022-10-12T17:09:31;7.50;;;4.63;;
8871;SDS011;4472;52.092;9.820;2022-10-12T17:12:21;10.43;;;5.43;;
8871;SDS011;4472;52.092;9.820;2022-10-12T17:15:10;9.10;;;5.00;;
8871;SDS011;4472;52.092;9.820;2022-10-12T17:17:57;8.97;;;4.90;;
8871;SDS011;4472;52.092;9.820;2022-10-12T17:20:45;14.03;;;6.33;;
8871;SDS011;4472;52.092;9.820;2022-10-12T17:23:32;11.67;;;6.53;;
8871;SDS011;4472;52.092;9.820;2022-10-12T17:26:19;21.07;;;9.50;;
8871;SDS011;4472;52.092;9.820;2022-10-12T17:29:07;21.83;;;11.63;;
8871;SDS011;4472;52.092;9.820;2022-10-12T17:31:57;26.20;;;13.13;;
8871;SDS011;4472;52.092;9.820;2022-10-12T17:34:45;25.83;;;12.30;;
8871;SDS011;4472;52.092;9.820;2022-10-12T17:37:32;24.73;;;11.53;;
8871;SDS011;4472;52.092;9.820;2022-10-12T17:40:19;15.40;;;7.60;;
8871;SDS011;4472;52.092;9.820;2022-10-12T17:43:07;12.83;;;5.63;;
8871;SDS011;4472;52.092;9.820;2022-10-12T17:45:54;13.10;;;5.97;;
8871;SDS011;4472;52.092;9.820;2022-10-12T17:48:42;11.23;;;5.07;;
8871;SDS011;4472;52.092;9.820;2022-10-12T17:51:30;7.43;;;5.30;;
8871;SDS011;4472;52.092;9.820;2022-10-12T17:54:18;8.67;;;4.33;;
8871;SDS011;4472;52.092;9.820;2022-10-12T17:57:06;9.23;;;5.03;;
8871;SDS011;4472;52.092;9.820;2022-10-12T17:59:53;12.83;;;4.60;;